Patos de Minas, Brazil
Current Conditions -  °F | °C
As of 2:00 PM on Thursday 30 Oct 2014 (Local Time) from SBUL Reporting Station
Rain Showers Rain Showers  
Wind Chill: 84°   Ceiling: Unl
Heat Index: 84°   Visibility: 6mi
Dew Point: 61°   Wind: 12mph
Humidity: 45%   Direction: 300°WNW
Pressure: 29.94"   Gusts: NA
Location:  18.58°S, 46.52°W
Report Text: SBUL 301600Z 30010KT 9999 VCSH FEW035 FEW040TCU 29/16 Q1014
Loading
Personal Weather Stations






























Interactive Weather Map
Tropical Storm Tracking
New forecast layout! Learn more

10-Day Weather Forecast

Advertisements
Track Severe Weather on mobile